Time;durP1;ratioP1;P1;durP2;ratioP2;P2;SDS_P1;SDS_P2;PMS_P1;PMS_P2;Temp;Humidity;BMP_temperature;BMP_pressure;BME280_temperature;BME280_humidity;BME280_pressure;Samples;Min_cycle;Max_cycle;Signal;HPM_P1;HPM_P2
2023/10/21 00:02:57;;;;;;;0.80;0.80;;;;;;;12.63;100.00;98220.16;10582066;28;20027;-78
2023/10/21 00:07:57;;;;;;;1.77;1.70;;;;;;;12.65;100.00;98221.50;10579990;28;20037;-76
2023/10/21 00:12:58;;;;;;;0.50;0.50;;;;;;;12.66;100.00;98220.41;10597486;27;20035;-77
2023/10/21 00:17:58;;;;;;;0.50;0.50;;;;;;;12.75;100.00;98232.31;10580905;28;20126;-77
2023/10/21 00:22:59;;;;;;;1.10;1.10;;;;;;;12.69;100.00;98232.63;10580148;28;20043;-78
2023/10/21 00:27:59;;;;;;;0.57;0.57;;;;;;;12.80;100.00;98236.94;10581142;28;20104;-78
2023/10/21 00:33:00;;;;;;;0.55;0.55;;;;;;;12.82;100.00;98245.59;10563503;28;20036;-77
2023/10/21 00:38:00;;;;;;;1.15;1.15;;;;;;;12.88;100.00;98251.84;10579482;28;20059;-77
2023/10/21 00:43:00;;;;;;;0.60;0.60;;;;;;;12.88;100.00;98260.00;10580276;28;20056;-77
2023/10/21 00:48:01;;;;;;;0.80;0.80;;;;;;;12.91;100.00;98267.59;10583293;28;20428;-77
2023/10/21 00:53:01;;;;;;;3.45;2.75;;;;;;;12.91;100.00;98273.03;10580311;28;20074;-77
2023/10/21 00:58:02;;;;;;;1.20;1.20;;;;;;;12.93;100.00;98274.38;10579726;28;20032;-77
2023/10/21 01:03:02;;;;;;;0.57;0.57;;;;;;;12.92;100.00;98274.63;10578907;28;20036;-77
2023/10/21 01:08:03;;;;;;;0.57;0.57;;;;;;;12.90;100.00;98276.84;10578618;28;20478;-77
2023/10/21 01:13:03;;;;;;;0.40;0.40;;;;;;;12.90;100.00;98293.94;10579858;28;20039;-77
2023/10/21 01:18:04;;;;;;;0.65;0.65;;;;;;;12.91;100.00;98302.91;10596399;28;20038;-77
2023/10/21 01:23:04;;;;;;;0.40;0.40;;;;;;;12.92;100.00;98296.38;10578248;28;20062;-76
2023/10/21 01:28:05;;;;;;;1.08;1.08;;;;;;;12.97;100.00;98304.50;10580294;28;20031;-77
2023/10/21 01:33:06;;;;;;;0.38;0.38;;;;;;;12.92;100.00;98308.06;10580129;28;20076;-77
2023/10/21 01:38:06;;;;;;;0.40;0.40;;;;;;;12.89;100.00;98318.66;10578877;28;20108;-77
2023/10/21 01:43:06;;;;;;;1.80;1.70;;;;;;;12.88;100.00;98322.47;10578305;28;20082;-77
2023/10/21 01:48:08;;;;;;;1.23;1.20;;;;;;;12.86;100.00;98319.19;10579174;28;20040;-76
2023/10/21 01:53:09;;;;;;;0.80;0.80;;;;;;;12.82;100.00;98318.94;10580296;28;20047;-77
2023/10/21 01:58:09;;;;;;;1.45;1.45;;;;;;;12.85;100.00;98328.44;10580153;28;20028;-77
2023/10/21 02:03:09;;;;;;;0.90;0.90;;;;;;;12.87;100.00;98331.72;10586190;28;20036;-77
2023/10/21 02:08:10;;;;;;;0.75;0.75;;;;;;;12.83;100.00;98341.47;10584891;28;20122;-77
2023/10/21 02:13:10;;;;;;;0.40;0.40;;;;;;;12.86;100.00;98347.19;10585397;28;20073;-77
2023/10/21 02:18:11;;;;;;;0.57;0.57;;;;;;;12.89;100.00;98354.78;10585953;28;20474;-76
2023/10/21 02:23:11;;;;;;;3.65;3.38;;;;;;;12.85;100.00;98366.47;10584484;28;20118;-77
2023/10/21 02:28:12;;;;;;;0.60;0.60;;;;;;;12.79;100.00;98369.22;10585576;28;20024;-77
2023/10/21 02:33:12;;;;;;;1.75;1.65;;;;;;;12.71;100.00;98374.38;10585845;28;20044;-78
2023/10/21 02:38:12;;;;;;;0.60;0.60;;;;;;;12.69;100.00;98388.19;10585795;28;20034;-76
2023/10/21 02:43:13;;;;;;;0.70;0.70;;;;;;;12.68;100.00;98381.16;10601302;27;20059;-77
2023/10/21 02:48:13;;;;;;;1.58;1.42;;;;;;;12.68;100.00;98392.00;10585250;28;20415;-76
2023/10/21 02:53:14;;;;;;;0.57;0.57;;;;;;;12.64;100.00;98393.66;10567759;28;20035;-76
2023/10/21 02:58:14;;;;;;;0.70;0.70;;;;;;;12.60;100.00;98395.25;10585689;27;20039;-77
2023/10/21 03:03:14;;;;;;;2.08;1.98;;;;;;;12.49;100.00;98402.59;10585121;28;20039;-77
2023/10/21 03:08:15;;;;;;;0.65;0.65;;;;;;;12.49;100.00;98412.66;10586387;28;20495;-77
2023/10/21 03:13:15;;;;;;;0.82;0.82;;;;;;;12.46;100.00;98416.72;10581914;28;20063;-77
2023/10/21 03:18:15;;;;;;;0.90;0.90;;;;;;;12.47;100.00;98409.38;10583396;28;20036;-77
2023/10/21 03:23:16;;;;;;;0.95;0.95;;;;;;;12.45;100.00;98423.25;10583481;28;20120;-77
2023/10/21 03:28:16;;;;;;;1.45;1.45;;;;;;;12.46;100.00;98424.88;10581775;28;20093;-77
2023/10/21 03:33:17;;;;;;;3.58;1.25;;;;;;;12.47;100.00;98428.38;10584128;28;20084;-77
2023/10/21 03:38:17;;;;;;;2.90;1.85;;;;;;;12.50;100.00;98438.69;10582087;28;20063;-77
2023/10/21 03:43:18;;;;;;;0.80;0.80;;;;;;;12.48;100.00;98443.59;10581258;28;20463;-77
2023/10/21 03:48:19;;;;;;;0.60;0.60;;;;;;;12.57;100.00;98447.38;10581211;28;20066;-77
2023/10/21 03:53:19;;;;;;;2.25;2.05;;;;;;;12.56;100.00;98451.19;10583536;28;20108;-77
2023/10/21 03:58:19;;;;;;;1.50;1.40;;;;;;;12.46;100.00;98457.44;10582004;28;20038;-77
2023/10/21 04:03:20;;;;;;;0.40;0.40;;;;;;;12.45;100.00;98466.66;10582033;28;20027;-76
2023/10/21 04:08:21;;;;;;;0.50;0.50;;;;;;;12.42;100.00;98471.81;10580733;28;20115;-77
2023/10/21 04:13:21;;;;;;;32.28;4.63;;;;;;;12.38;100.00;98476.13;10581503;28;20027;-77
2023/10/21 04:18:22;;;;;;;0.60;0.60;;;;;;;12.34;100.00;98482.09;10581768;28;20039;-77
2023/10/21 04:23:22;;;;;;;4.00;3.63;;;;;;;12.40;100.00;98492.97;10580257;28;20051;-77
2023/10/21 04:28:23;;;;;;;1.58;1.48;;;;;;;12.50;100.00;98506.56;10579705;28;20042;-76
2023/10/21 04:33:23;;;;;;;0.40;0.40;;;;;;;12.68;100.00;98525.06;10582348;28;20398;-78
2023/10/21 04:38:24;;;;;;;0.47;0.47;;;;;;;12.75;100.00;98531.03;10581825;28;20222;-77
2023/10/21 04:43:24;;;;;;;0.70;0.70;;;;;;;12.77;100.00;98533.50;10581246;28;20043;-77
2023/10/21 04:48:25;;;;;;;1.23;1.23;;;;;;;12.93;100.00;98545.19;10579070;28;20036;-77
2023/10/21 04:53:25;;;;;;;0.60;0.60;;;;;;;12.97;100.00;98547.09;10579376;28;20114;-77
2023/10/21 04:58:26;;;;;;;1.67;1.58;;;;;;;12.97;100.00;98549.81;10578696;28;20031;-77
2023/10/21 05:03:26;;;;;;;0.57;0.57;;;;;;;12.87;100.00;98568.00;10580604;28;20463;-77
2023/10/21 05:08:26;;;;;;;0.75;0.75;;;;;;;12.91;100.00;98567.19;10580659;28;20050;-77
2023/10/21 05:13:27;;;;;;;0.88;0.88;;;;;;;12.96;100.00;98569.91;10581226;28;20036;-77
2023/10/21 05:18:27;;;;;;;0.88;0.88;;;;;;;13.03;100.00;98573.19;10579981;28;20055;-77
2023/10/21 05:23:27;;;;;;;0.40;0.40;;;;;;;13.09;100.00;98579.44;10595867;28;20039;-76
2023/10/21 05:28:28;;;;;;;0.60;0.60;;;;;;;13.11;100.00;98590.03;10578493;28;20035;-77
2023/10/21 05:33:29;;;;;;;2.72;2.08;;;;;;;13.09;100.00;98589.50;10582683;28;20197;-77
2023/10/21 05:38:29;;;;;;;0.65;0.65;;;;;;;13.08;100.00;98596.00;10588063;28;20028;-76
2023/10/21 05:43:30;;;;;;;1.02;1.02;;;;;;;13.09;100.00;98598.47;10586890;28;20068;-77
2023/10/21 05:48:30;;;;;;;0.40;0.40;;;;;;;13.11;100.00;98606.31;10587266;28;20066;-76
2023/10/21 05:53:33;;;;;;;7.97;3.17;;;;;;;13.12;100.00;98621.56;10585667;28;20069;-77
2023/10/21 05:58:33;;;;;;;0.45;0.45;;;;;;;13.09;100.00;98617.47;10586755;28;20046;-77
2023/10/21 06:03:35;;;;;;;0.32;0.32;;;;;;;13.15;100.00;98643.56;10585203;28;20059;-77
2023/10/21 06:08:35;;;;;;;6.93;2.25;;;;;;;13.12;100.00;98649.56;10586571;28;20043;-76
2023/10/21 06:13:35;;;;;;;0.68;0.68;;;;;;;13.23;100.00;98655.81;10585260;28;20070;-77
2023/10/21 06:18:36;;;;;;;0.82;0.82;;;;;;;13.32;100.00;98667.00;10584792;28;20031;-77
2023/10/21 06:23:36;;;;;;;0.70;0.68;;;;;;;13.42;100.00;98670.53;10583871;28;20107;-75
2023/10/21 06:28:38;;;;;;;0.60;0.60;;;;;;;13.47;100.00;98680.63;10585741;28;20111;-75
2023/10/21 06:33:38;;;;;;;0.50;0.50;;;;;;;13.55;100.00;98688.22;10585085;28;20032;-75
2023/10/21 06:38:38;;;;;;;1.67;1.63;;;;;;;13.60;100.00;98696.38;10583815;28;20051;-75
2023/10/21 06:43:40;;;;;;;0.50;0.50;;;;;;;13.65;100.00;98709.16;10584972;28;20420;-75
2023/10/21 06:48:40;;;;;;;0.40;0.40;;;;;;;13.63;100.00;98709.44;10584340;28;20027;-75
2023/10/21 06:53:41;;;;;;;0.80;0.80;;;;;;;13.75;100.00;98730.09;10583879;28;20043;-77
2023/10/21 06:58:43;;;;;;;3.20;2.90;;;;;;;13.73;100.00;98736.66;10585814;28;20474;-76
2023/10/21 07:03:44;;;;;;;0.55;0.55;;;;;;;13.76;100.00;98745.38;10584593;28;20063;-75
2023/10/21 07:08:44;;;;;;;1.70;0.95;;;;;;;13.77;100.00;98758.69;10583716;28;20179;-76
2023/10/21 07:13:47;;;;;;;0.88;0.88;;;;;;;13.83;100.00;98773.09;10583994;28;20096;-77
2023/10/21 07:18:48;;;;;;;0.40;0.40;;;;;;;13.90;100.00;98779.09;10565698;28;20042;-75
2023/10/21 07:23:48;;;;;;;1.00;1.00;;;;;;;13.99;100.00;98780.19;10584619;28;20501;-75
2023/10/21 07:28:48;;;;;;;0.40;0.40;;;;;;;14.04;100.00;98791.09;10582962;28;20031;-74
2023/10/21 07:33:52;;;;;;;0.68;0.68;;;;;;;14.06;100.00;98790.78;10582233;28;20471;-74
2023/10/21 07:38:53;;;;;;;5.15;3.92;;;;;;;14.05;100.00;98795.44;10599036;27;20135;-75
2023/10/21 07:43:53;;;;;;;6.20;4.05;;;;;;;14.07;100.00;98804.16;10582099;28;20471;-76
2023/10/21 07:48:53;;;;;;;6.10;3.20;;;;;;;13.90;100.00;98814.47;10581185;28;20090;-74
2023/10/21 07:53:55;;;;;;;0.95;0.95;;;;;;;13.59;100.00;98832.63;10580787;28;20527;-78
2023/10/21 07:58:55;;;;;;;3.35;2.25;;;;;;;13.53;100.00;98856.28;10581814;28;20047;-76
2023/10/21 08:03:55;;;;;;;0.82;0.82;;;;;;;13.40;100.00;98840.44;10581944;27;20501;-77
2023/10/21 08:08:56;;;;;;;0.57;0.57;;;;;;;13.33;100.00;98853.47;10580259;28;20118;-77
2023/10/21 08:13:57;;;;;;;0.70;0.70;;;;;;;13.25;100.00;98854.81;10582002;28;20195;-77
2023/10/21 08:18:58;;;;;;;0.30;0.30;;;;;;;13.39;100.00;98868.72;10580042;28;20043;-77
2023/10/21 08:23:58;;;;;;;0.40;0.40;;;;;;;13.37;100.00;98889.91;10595893;27;20371;-76
2023/10/21 08:28:59;;;;;;;0.60;0.60;;;;;;;13.40;100.00;98905.69;10580252;28;20039;-77
2023/10/21 08:33:59;;;;;;;0.50;0.50;;;;;;;13.23;100.00;98912.09;10580418;28;20054;-77
2023/10/21 08:39:00;;;;;;;0.40;0.40;;;;;;;13.42;100.00;98925.28;10578320;28;20056;-77
2023/10/21 08:44:00;;;;;;;0.50;0.50;;;;;;;13.26;100.00;98921.66;10579921;28;20027;-78
2023/10/21 08:49:04;;;;;;;0.50;0.50;;;;;;;13.28;100.00;98929.56;10580751;28;20454;-77
2023/10/21 08:54:05;;;;;;;0.43;0.43;;;;;;;13.37;100.00;98931.53;10578070;28;20088;-77
2023/10/21 08:59:05;;;;;;;0.40;0.40;;;;;;;13.23;100.00;98942.00;10578515;28;20352;-77
2023/10/21 09:04:06;;;;;;;0.60;0.60;;;;;;;13.12;100.00;98943.03;10580078;28;20067;-78
2023/10/21 09:09:19;;;;;;;0.40;0.40;;;;;;;13.16;100.00;98952.28;10582632;28;20043;-78
2023/10/21 09:14:19;;;;;;;0.50;0.50;;;;;;;13.30;100.00;98971.69;10572949;28;20042;-78
2023/10/21 09:19:23;;;;;;;4.28;0.57;;;;;;;13.25;100.00;98966.25;10603511;27;20389;-79
2023/10/21 09:24:24;;;;;;;0.40;0.40;;;;;;;13.36;100.00;98978.81;10572360;28;20576;-80
2023/10/21 09:29:24;;;;;;;0.70;0.70;;;;;;;13.60;100.00;98992.81;10587475;28;20032;-79
2023/10/21 09:34:26;;;;;;;0.50;0.50;;;;;;;14.74;100.00;98992.94;10587435;28;20027;-78
2023/10/21 09:39:33;;;;;;;0.60;0.60;;;;;;;15.00;100.00;98999.19;10585201;28;20518;-80
2023/10/21 09:44:35;;;;;;;0.40;0.40;;;;;;;14.98;100.00;98997.81;10606835;27;20031;-80
2023/10/21 09:49:39;;;;;;;0.50;0.50;;;;;;;15.02;100.00;98997.00;10588253;28;20119;-79
2023/10/21 09:54:43;;;;;;;0.50;0.50;;;;;;;15.42;100.00;99028.06;10586275;28;20057;-78
2023/10/21 09:59:44;;;;;;;0.40;0.40;;;;;;;16.59;100.00;99017.78;10589521;28;20036;-82
2023/10/21 10:04:45;;;;;;;1.52;1.52;;;;;;;16.14;100.00;99030.59;10554816;28;20035;-75
2023/10/21 10:09:45;;;;;;;0.68;0.68;;;;;;;15.93;100.00;99035.34;10568733;28;20028;-77
2023/10/21 10:14:46;;;;;;;0.77;0.75;;;;;;;16.91;100.00;99042.75;10568384;28;20476;-77
2023/10/21 10:19:46;;;;;;;0.60;0.60;;;;;;;17.00;100.00;99051.16;10586304;27;20047;-78
2023/10/21 10:24:53;;;;;;;0.40;0.40;;;;;;;17.22;100.00;99036.22;10585313;28;20031;-77
2023/10/21 10:29:53;;;;;;;0.40;0.40;;;;;;;16.77;100.00;99060.88;10583936;28;20084;-76
2023/10/21 10:34:54;;;;;;;0.60;0.60;;;;;;;16.63;100.00;99065.31;10585448;28;20035;-76
2023/10/21 10:39:54;;;;;;;1.55;1.55;;;;;;;17.57;100.00;99070.63;10566666;28;20047;-76
2023/10/21 10:44:55;;;;;;;0.57;0.57;;;;;;;17.74;100.00;99082.00;10584921;28;20070;-75
2023/10/21 10:49:56;;;;;;;2.83;2.22;;;;;;;17.51;100.00;99080.81;10567319;28;20030;-75
2023/10/21 10:54:58;;;;;;;6.93;2.45;;;;;;;18.10;100.00;99068.75;10584668;28;20054;-75
2023/10/21 10:59:58;;;;;;;0.90;0.90;;;;;;;16.97;100.00;99081.78;10583265;28;20036;-76
2023/10/21 11:04:59;;;;;;;4.43;2.33;;;;;;;16.04;100.00;99095.06;10583285;28;20437;-76
2023/10/21 11:10:00;;;;;;;2.33;1.65;;;;;;;15.61;100.00;99087.50;10584469;28;20122;-76
2023/10/21 11:15:01;;;;;;;3.65;2.30;;;;;;;15.75;100.00;99083.94;10583377;28;20028;-75
2023/10/21 11:20:02;;;;;;;1.85;1.75;;;;;;;16.43;100.00;99090.81;10583363;28;20035;-75
2023/10/21 11:25:03;;;;;;;3.53;2.33;;;;;;;16.93;100.00;99097.94;10582483;28;20028;-76
2023/10/21 11:30:08;;;;;;;16.23;2.60;;;;;;;16.99;100.00;99097.94;10583296;28;20035;-76
2023/10/21 11:35:12;;;;;;;4.13;1.65;;;;;;;16.17;100.00;99079.19;10564717;28;20408;-75
2023/10/21 11:40:15;;;;;;;2.33;1.83;;;;;;;15.99;100.00;99089.63;10582986;28;20046;-76
2023/10/21 11:45:16;;;;;;;8.27;1.73;;;;;;;16.14;100.00;99079.75;10582470;28;20036;-76
2023/10/21 11:50:19;;;;;;;2.88;1.60;;;;;;;16.22;100.00;99104.56;10582377;28;20054;-77
2023/10/21 12:37:40;;;;;;;10.50;3.83;;;;;;;15.44;100.00;99124.03;10579707;28;20127;-76
2023/10/21 12:42:45;;;;;;;5.78;2.95;;;;;;;15.09;100.00;99124.84;10566197;28;20147;-79
2023/10/21 12:47:48;;;;;;;7.15;2.17;;;;;;;14.85;100.00;99113.66;10579886;28;20077;-76
2023/10/21 12:52:48;;;;;;;23.02;4.32;;;;;;;14.76;100.00;99107.88;10580398;28;20118;-77
2023/10/21 12:57:50;;;;;;;3.85;2.42;;;;;;;14.61;100.00;99125.03;10579663;28;20481;-77
2023/10/21 13:02:50;;;;;;;5.82;2.03;;;;;;;14.51;100.00;99124.97;10579717;28;20039;-77
2023/10/21 13:07:50;;;;;;;14.35;2.63;;;;;;;14.28;100.00;99133.56;10579907;28;20493;-77
2023/10/21 13:12:51;;;;;;;5.03;2.08;;;;;;;14.06;100.00;99148.16;10579976;28;20066;-77
2023/10/21 13:17:51;;;;;;;6.75;3.03;;;;;;;13.83;100.00;99152.09;10577956;28;20063;-77
2023/10/21 13:22:54;;;;;;;8.05;3.65;;;;;;;13.26;100.00;99172.56;10580245;28;20043;-77
2023/10/21 13:27:54;;;;;;;3.28;2.97;;;;;;;12.82;100.00;99162.81;10581539;28;20028;-80
2023/10/21 13:32:55;;;;;;;7.57;3.10;;;;;;;12.69;100.00;99162.16;10579362;28;20118;-77
2023/10/21 13:37:55;;;;;;;18.25;4.82;;;;;;;12.49;100.00;99168.16;10569163;28;20458;-80
2023/10/21 13:42:57;;;;;;;7.60;2.92;;;;;;;12.39;100.00;99173.47;10579676;28;20122;-78
2023/10/21 13:47:58;;;;;;;16.10;3.33;;;;;;;12.25;100.00;99177.59;10559917;28;20434;-77
2023/10/21 13:58:17;;;;;;;9.02;3.60;;;;;;;12.04;100.00;99177.31;10586353;28;20422;-75
2023/10/21 14:03:24;;;;;;;0.50;0.50;;;;;;;12.04;100.00;99185.47;10586106;27;20114;-76
2023/10/21 14:08:27;;;;;;;3.03;2.60;;;;;;;12.10;100.00;99180.94;10586635;28;20100;-75
2023/10/21 14:13:28;;;;;;;0.93;0.93;;;;;;;12.04;100.00;99180.03;10566965;28;20105;-77
2023/10/21 14:18:28;;;;;;;0.40;0.40;;;;;;;12.03;100.00;99180.31;10584740;28;20050;-77
2023/10/21 14:23:29;;;;;;;0.45;0.45;;;;;;;11.96;100.00;99190.47;10585919;28;20072;-79
2023/10/21 14:28:30;;;;;;;0.40;0.40;;;;;;;11.93;100.00;99194.50;10569097;28;20035;-82
2023/10/21 14:33:31;;;;;;;0.55;0.55;;;;;;;11.82;100.00;99174.53;10587782;28;20039;-82
2023/10/21 14:38:32;;;;;;;21.38;2.75;;;;;;;11.69;100.00;99188.41;10585103;28;20072;-81
2023/10/21 14:43:32;;;;;;;0.32;0.32;;;;;;;11.66;100.00;99177.25;10622127;27;20052;-82
2023/10/21 14:48:33;;;;;;;0.50;0.50;;;;;;;11.66;100.00;99180.78;10592870;28;20043;-80
2023/10/21 14:53:34;;;;;;;0.50;0.50;;;;;;;11.69;100.00;99183.00;10585111;28;20474;-80
2023/10/21 14:58:34;;;;;;;1.45;1.45;;;;;;;11.64;100.00;99191.84;10583808;28;20032;-80
2023/10/21 15:03:35;;;;;;;1.00;1.00;;;;;;;11.59;100.00;99177.41;10582980;28;20115;-80
2023/10/21 15:08:39;;;;;;;0.40;0.40;;;;;;;11.53;100.00;99186.53;10583726;27;20032;-79
2023/10/21 15:13:39;;;;;;;1.98;1.88;;;;;;;11.58;100.00;99178.47;10582731;28;20031;-79
2023/10/21 15:18:40;;;;;;;2.13;2.05;;;;;;;11.48;100.00;99181.00;10582537;28;20070;-78
2023/10/21 15:23:40;;;;;;;0.40;0.40;;;;;;;11.39;100.00;99186.84;10583075;28;20035;-77
2023/10/21 15:28:41;;;;;;;0.50;0.50;;;;;;;11.40;100.00;99185.78;10582751;27;20036;-77
2023/10/21 15:33:41;;;;;;;0.65;0.65;;;;;;;11.42;100.00;99163.84;10583358;28;20455;-76
2023/10/21 15:38:42;;;;;;;0.50;0.50;;;;;;;11.47;100.00;99168.53;10598259;27;20032;-76
2023/10/21 15:43:42;;;;;;;0.40;0.40;;;;;;;11.40;100.00;99172.22;10582706;28;20062;-76
2023/10/21 15:48:43;;;;;;;0.40;0.40;;;;;;;11.42;100.00;99185.53;10582094;28;20081;-76
2023/10/21 15:53:44;;;;;;;1.90;1.88;;;;;;;11.46;100.00;99183.97;10563607;28;20440;-77
2023/10/21 15:58:44;;;;;;;0.40;0.40;;;;;;;11.44;100.00;99204.25;10564217;28;20028;-78
2023/10/21 16:03:45;;;;;;;0.47;0.47;;;;;;;11.45;100.00;99203.19;10580859;28;20126;-78
2023/10/21 16:08:45;;;;;;;0.40;0.40;;;;;;;11.55;100.00;99208.78;10579531;28;20051;-79
2023/10/21 16:13:45;;;;;;;0.43;0.43;;;;;;;11.58;100.00;99219.97;10581532;28;20494;-79
2023/10/21 16:18:46;;;;;;;0.40;0.40;;;;;;;11.55;100.00;99222.34;10578510;28;20027;-78
2023/10/21 16:23:47;;;;;;;0.85;0.85;;;;;;;11.61;100.00;99222.19;10581000;28;20054;-79
2023/10/21 16:28:48;;;;;;;0.40;0.40;;;;;;;11.60;100.00;99219.72;10580110;28;20035;-79
2023/10/21 16:33:48;;;;;;;0.98;0.98;;;;;;;11.64;100.00;99235.22;10562220;28;20486;-79
2023/10/21 16:38:50;;;;;;;0.40;0.40;;;;;;;11.68;100.00;99229.31;10579315;28;20452;-78
2023/10/21 16:43:52;;;;;;;0.90;0.90;;;;;;;11.69;100.00;99241.84;10580628;28;20420;-79
2023/10/21 16:48:53;;;;;;;0.47;0.47;;;;;;;11.70;100.00;99251.59;10596718;27;20028;-79
2023/10/21 16:53:54;;;;;;;5.07;2.70;;;;;;;11.76;100.00;99256.88;10580434;28;20035;-79
2023/10/21 16:58:56;;;;;;;0.30;0.30;;;;;;;11.72;100.00;99253.00;10596730;27;20030;-78
2023/10/21 17:03:56;;;;;;;0.40;0.40;;;;;;;11.73;100.00;99273.63;10582869;28;20043;-79
2023/10/21 17:08:59;;;;;;;0.50;0.50;;;;;;;11.72;100.00;99272.00;10598357;28;20038;-80
2023/10/21 17:13:59;;;;;;;1.60;1.50;;;;;;;11.78;100.00;99278.34;10583606;28;20401;-80
2023/10/21 17:19:00;;;;;;;0.40;0.40;;;;;;;11.78;100.00;99279.16;10581681;28;20035;-80
2023/10/21 17:24:00;;;;;;;0.82;0.82;;;;;;;11.80;100.00;99287.84;10581218;28;20127;-80
2023/10/21 17:29:00;;;;;;;0.50;0.50;;;;;;;11.83;100.00;99281.09;10582204;28;20116;-81
2023/10/21 17:34:01;;;;;;;33.45;6.88;;;;;;;11.80;100.00;99277.00;10604229;27;20043;-80
2023/10/21 17:39:03;;;;;;;0.65;0.65;;;;;;;11.81;100.00;99281.38;10589756;28;20110;-80
2023/10/21 17:44:04;;;;;;;0.38;0.38;;;;;;;11.76;100.00;99283.97;10595681;28;20374;-80
2023/10/21 17:49:04;;;;;;;0.45;0.45;;;;;;;11.77;100.00;99277.50;10589327;27;20126;-80
2023/10/21 17:54:07;;;;;;;0.82;0.82;;;;;;;11.81;100.00;99296.81;10587404;28;20385;-79
2023/10/21 17:59:07;;;;;;;1.92;1.83;;;;;;;11.83;100.00;99281.94;10588034;28;20059;-80
2023/10/21 18:04:08;;;;;;;0.40;0.40;;;;;;;11.82;100.00;99298.47;10586492;28;20039;-79
2023/10/21 18:09:10;;;;;;;0.40;0.40;;;;;;;11.85;100.00;99287.16;10588090;28;20051;-80
2023/10/21 18:14:10;;;;;;;2.78;2.67;;;;;;;11.83;100.00;99294.66;10587236;28;20036;-81
2023/10/21 18:19:11;;;;;;;0.50;0.50;;;;;;;11.80;100.00;99290.56;10588039;28;20031;-81
2023/10/21 18:24:11;;;;;;;0.35;0.35;;;;;;;11.86;100.00;99305.06;10588622;28;20035;-80
2023/10/21 18:29:12;;;;;;;0.40;0.40;;;;;;;11.89;100.00;99284.78;10587573;27;20390;-80
2023/10/21 18:34:12;;;;;;;0.50;0.50;;;;;;;11.94;100.00;99298.44;10588607;27;20048;-79
2023/10/21 18:39:14;;;;;;;2.30;2.20;;;;;;;11.98;100.00;99299.56;10590389;28;20395;-79
2023/10/21 18:44:16;;;;;;;0.40;0.40;;;;;;;12.03;100.00;99288.81;10592276;28;20032;-80
2023/10/21 18:49:16;;;;;;;0.80;0.80;;;;;;;12.05;100.00;99275.81;10592755;28;20032;-81
2023/10/21 18:54:21;;;;;;;0.50;0.50;;;;;;;12.03;100.00;99283.41;10594808;28;20040;-80
2023/10/21 18:59:21;;;;;;;0.50;0.50;;;;;;;12.05;100.00;99276.63;10587426;28;20530;-79
2023/10/21 19:04:22;;;;;;;4.03;3.22;;;;;;;12.06;100.00;99282.88;10586577;28;20119;-79
2023/10/21 19:09:24;;;;;;;0.40;0.40;;;;;;;12.10;100.00;99274.00;10585215;28;20100;-80
2023/10/21 19:14:24;;;;;;;0.40;0.40;;;;;;;12.10;100.00;99294.91;10583338;28;20027;-79
2023/10/21 19:19:25;;;;;;;8.90;2.58;;;;;;;12.14;100.00;99287.91;10584226;28;20031;-78
2023/10/21 19:24:27;;;;;;;6.28;2.22;;;;;;;12.09;100.00;99293.22;10565553;28;20036;-80
2023/10/21 19:29:29;;;;;;;13.60;2.65;;;;;;;12.18;100.00;99294.47;10565418;28;20190;-78
2023/10/21 19:34:29;;;;;;;12.77;3.20;;;;;;;12.29;100.00;99296.28;10584161;28;20038;-79
2023/10/21 19:39:30;;;;;;;6.68;2.42;;;;;;;12.33;100.00;99291.19;10583737;28;20525;-79
2023/10/21 19:44:30;;;;;;;11.90;3.15;;;;;;;12.36;100.00;99287.97;10582605;28;20031;-78
2023/10/21 19:49:34;;;;;;;5.05;2.42;;;;;;;12.45;100.00;99288.38;10581869;28;20115;-79
2023/10/21 19:54:34;;;;;;;6.45;2.35;;;;;;;12.57;100.00;99299.94;10581790;28;20036;-78
2023/10/21 19:59:34;;;;;;;4.95;3.25;;;;;;;12.64;100.00;99286.19;10564716;28;20111;-79
2023/10/21 20:04:35;;;;;;;2.03;1.50;;;;;;;12.69;100.00;99297.94;10582379;28;20036;-77
2023/10/21 20:09:35;;;;;;;2.53;2.15;;;;;;;12.72;100.00;99302.88;10581290;28;20077;-77
2023/10/21 20:14:36;;;;;;;5.32;2.92;;;;;;;12.81;100.00;99278.81;10582483;28;20055;-76
2023/10/21 20:19:36;;;;;;;4.65;2.80;;;;;;;12.89;100.00;99296.56;10580045;28;20035;-76
2023/10/21 20:24:37;;;;;;;2.35;2.15;;;;;;;12.95;100.00;99296.38;10581752;27;20058;-77
2023/10/21 20:29:39;;;;;;;4.28;2.00;;;;;;;12.93;100.00;99303.16;10582130;28;20067;-76
2023/10/21 20:34:39;;;;;;;6.55;2.63;;;;;;;13.11;100.00;99294.66;10579142;28;20131;-76
2023/10/21 20:39:39;;;;;;;9.73;2.63;;;;;;;13.12;100.00;99298.22;10580705;28;20101;-76
2023/10/21 20:44:40;;;;;;;3.53;2.22;;;;;;;13.01;100.00;99303.53;10560513;28;20093;-76
2023/10/21 20:49:40;;;;;;;5.15;3.20;;;;;;;12.72;100.00;99318.34;10578345;28;20109;-77
2023/10/21 20:54:41;;;;;;;5.53;2.13;;;;;;;12.30;100.00;99326.97;10579358;28;20450;-77
2023/10/21 20:59:41;;;;;;;9.32;3.08;;;;;;;12.06;100.00;99324.41;10578899;28;20063;-79
2023/10/21 21:04:42;;;;;;;3.20;2.30;;;;;;;11.94;100.00;99328.28;10576650;28;20039;-78
2023/10/21 21:09:42;;;;;;;2.63;1.98;;;;;;;11.83;100.00;99325.31;10594762;28;20044;-78
2023/10/21 21:14:43;;;;;;;4.15;2.17;;;;;;;11.82;100.00;99320.16;10583136;28;20046;-79
2023/10/21 21:19:43;;;;;;;5.13;2.53;;;;;;;11.89;100.00;99322.75;10587367;28;20437;-80
2023/10/21 21:24:43;;;;;;;7.10;1.92;;;;;;;11.80;100.00;99323.09;10585907;28;20032;-80
2023/10/21 21:29:45;;;;;;;5.75;1.67;;;;;;;11.81;100.00;99318.53;10580443;28;20062;-81
2023/10/21 21:34:48;;;;;;;6.22;2.13;;;;;;;11.83;100.00;99316.38;10577565;28;20042;-82
2023/10/21 21:39:48;;;;;;;3.20;1.27;;;;;;;11.73;100.00;99303.44;10539782;28;1547984;-82
2023/10/21 21:44:48;;;;;;;6.18;1.75;;;;;;;11.74;100.00;99312.41;10585622;28;20058;-83
2023/10/21 21:49:49;;;;;;;1.45;1.35;;;;;;;11.74;100.00;99298.84;10581739;28;20080;-79
2023/10/21 21:54:49;;;;;;;4.82;2.58;;;;;;;11.76;100.00;99300.25;10579422;28;20458;-78
2023/10/21 21:59:50;;;;;;;5.93;2.08;;;;;;;11.77;100.00;99301.91;10579910;28;20468;-79
2023/10/21 22:04:52;;;;;;;2.08;1.83;;;;;;;11.75;100.00;99303.22;10579023;28;20066;-79
2023/10/21 22:09:53;;;;;;;4.57;2.00;;;;;;;11.75;100.00;99297.81;10544460;28;20047;-80
2023/10/21 22:14:53;;;;;;;5.20;1.85;;;;;;;11.73;100.00;99308.06;10581137;28;20118;-78
2023/10/21 22:19:54;;;;;;;1.52;1.42;;;;;;;11.73;100.00;99310.78;10587828;28;20115;-79
2023/10/21 22:24:55;;;;;;;2.10;1.42;;;;;;;11.68;100.00;99306.09;10587753;28;20027;-79
2023/10/21 22:29:55;;;;;;;5.88;2.13;;;;;;;11.65;100.00;99303.88;10592130;28;20042;-80
2023/10/21 22:35:00;;;;;;;1.00;0.50;;;;;;;11.67;100.00;99307.13;10588040;27;20042;-79
2023/10/21 22:40:00;;;;;;;0.40;0.40;;;;;;;11.71;100.00;99297.47;10568248;28;20066;-79
2023/10/21 22:45:00;;;;;;;0.73;0.73;;;;;;;11.69;100.00;99301.50;10584114;28;20042;-80
2023/10/21 22:50:01;;;;;;;0.40;0.40;;;;;;;11.68;100.00;99295.25;10585970;28;20459;-81
2023/10/21 22:55:02;;;;;;;0.50;0.50;;;;;;;11.71;100.00;99305.59;10586450;28;20039;-80
2023/10/21 23:00:04;;;;;;;0.40;0.40;;;;;;;11.79;100.00;99304.38;10587358;28;20076;-80
2023/10/21 23:05:06;;;;;;;0.40;0.40;;;;;;;11.88;100.00;99291.28;10584618;28;20035;-80
2023/10/21 23:10:19;;;;;;;12.25;3.38;;;;;;;11.89;100.00;99296.44;10584231;27;20038;-82
2023/10/21 23:15:20;;;;;;;0.68;0.68;;;;;;;12.03;100.00;99291.53;10585820;28;20038;-79
2023/10/21 23:20:21;;;;;;;0.40;0.40;;;;;;;12.00;100.00;99309.13;10582565;28;20042;-79
2023/10/21 23:25:21;;;;;;;0.95;0.95;;;;;;;11.99;100.00;99312.88;10583298;28;20436;-79
2023/10/21 23:30:22;;;;;;;0.30;0.30;;;;;;;12.04;100.00;99314.88;10581174;28;20028;-79
2023/10/21 23:35:23;;;;;;;9.95;3.63;;;;;;;12.08;100.00;99313.31;10564948;28;20432;-79
2023/10/21 23:40:23;;;;;;;1.30;1.20;;;;;;;12.09;100.00;99309.50;10583702;28;20079;-78
2023/10/21 23:45:23;;;;;;;0.40;0.40;;;;;;;12.20;100.00;99327.63;10583707;28;20032;-80
2023/10/21 23:50:26;;;;;;;0.50;0.50;;;;;;;12.26;100.00;99325.81;10584574;28;20028;-78